Time;durP1;ratioP1;P1;durP2;ratioP2;P2;SDS_P1;SDS_P2;PMS_P1;PMS_P2;Temp;Humidity;BMP_temperature;BMP_pressure;BME280_temperature;BME280_humidity;BME280_pressure;Samples;Min_cycle;Max_cycle;Signal;HPM_P1;HPM_P2
2021/12/01 00:01:12;;;;;;;12.93;8.25;;;;;;;9.09;100.00;100100.41;5010033;28;20485;-73
2021/12/01 00:03:40;;;;;;;10.27;7.15;;;;;;;9.17;100.00;100097.28;5005902;28;20116;-72
2021/12/01 00:06:06;;;;;;;11.45;7.07;;;;;;;9.11;100.00;100079.06;5019478;28;20421;-72
2021/12/01 00:08:31;;;;;;;10.88;6.28;;;;;;;9.15;100.00;100076.69;5024128;28;20052;-73
2021/12/01 00:10:56;;;;;;;11.05;6.35;;;;;;;9.17;100.00;100069.88;5009431;28;20025;-72
2021/12/01 00:13:22;;;;;;;9.00;5.65;;;;;;;9.09;100.00;100062.88;5022436;28;20120;-73
2021/12/01 00:15:49;;;;;;;9.00;6.00;;;;;;;9.13;100.00;100049.56;5025441;28;20093;-73
2021/12/01 00:18:15;;;;;;;8.40;5.27;;;;;;;9.09;100.00;100040.13;5008619;28;20037;-72
2021/12/01 00:20:41;;;;;;;8.63;5.40;;;;;;;9.11;100.00;100021.53;5007008;28;20364;-73
2021/12/01 00:23:08;;;;;;;10.38;5.93;;;;;;;9.07;100.00;100013.00;5023640;28;20026;-71
2021/12/01 00:25:38;;;;;;;8.85;5.47;;;;;;;9.09;100.00;100010.84;5011213;28;20022;-73
2021/12/01 00:28:03;;;;;;;8.60;5.35;;;;;;;9.17;100.00;100004.13;5013861;28;20703;-72
2021/12/01 00:30:29;;;;;;;8.30;5.18;;;;;;;9.14;100.00;99992.84;5006159;28;20030;-73
2021/12/01 00:32:55;;;;;;;7.47;4.60;;;;;;;9.18;100.00;99991.31;5006218;28;20034;-72
2021/12/01 00:35:22;;;;;;;8.02;5.03;;;;;;;9.12;100.00;99986.75;5022133;28;20407;-73
2021/12/01 00:37:48;;;;;;;7.10;3.92;;;;;;;9.21;100.00;99977.09;5023845;28;20041;-73
2021/12/01 00:40:14;;;;;;;7.50;4.88;;;;;;;9.15;100.00;99961.63;5020785;28;20603;-72
2021/12/01 00:42:40;;;;;;;7.18;4.18;;;;;;;9.14;100.00;99966.28;5011347;28;20025;-72
2021/12/01 00:45:11;;;;;;;6.72;4.30;;;;;;;9.15;100.00;99962.47;5023643;28;20053;-72
2021/12/01 00:47:44;;;;;;;8.13;4.38;;;;;;;9.17;100.00;99954.00;5013943;28;20026;-72
2021/12/01 00:50:13;;;;;;;9.93;4.85;;;;;;;9.15;100.00;99950.69;5018272;28;20026;-72
2021/12/01 00:52:38;;;;;;;8.07;4.78;;;;;;;9.11;100.00;99950.31;5021759;28;20167;-72
2021/12/01 00:55:05;;;;;;;8.23;4.57;;;;;;;9.08;100.00;99945.34;5016595;28;20136;-72
2021/12/01 00:57:30;;;;;;;7.10;3.25;;;;;;;9.21;100.00;99953.25;5003864;28;20064;-72
2021/12/01 00:59:55;;;;;;;7.28;4.00;;;;;;;9.15;100.00;99936.97;5018135;28;20499;-73
2021/12/01 01:02:21;;;;;;;6.47;4.10;;;;;;;9.13;100.00;99934.50;5004843;28;20069;-73
2021/12/01 01:04:46;;;;;;;7.30;3.72;;;;;;;9.11;100.00;99928.41;5008632;28;20042;-73
2021/12/01 01:07:11;;;;;;;7.22;3.35;;;;;;;9.14;100.00;99936.16;5008088;28;20540;-73
2021/12/01 01:09:38;;;;;;;7.53;3.50;;;;;;;9.11;100.00;99917.44;5006367;28;20037;-72
2021/12/01 01:17:38;;;;;;;7.13;3.75;;;;;;;9.01;100.00;99906.28;5005700;28;20091;-72
2021/12/01 01:20:08;;;;;;;7.47;4.15;;;;;;;9.07;100.00;99905.31;5023640;28;20124;-73
2021/12/01 01:22:33;;;;;;;7.25;4.00;;;;;;;9.03;100.00;99868.56;5011518;28;20064;-72
2021/12/01 01:24:59;;;;;;;7.07;3.72;;;;;;;9.12;100.00;99885.41;5019734;28;20087;-74
2021/12/01 01:27:24;;;;;;;7.43;4.00;;;;;;;9.07;100.00;99883.41;5012451;28;20037;-73
2021/12/01 01:29:49;;;;;;;6.80;3.67;;;;;;;9.08;100.00;99879.63;5006649;28;20056;-73
2021/12/01 01:32:15;;;;;;;7.63;3.97;;;;;;;9.03;100.00;99874.03;5023151;28;20432;-73
2021/12/01 01:34:40;;;;;;;6.75;4.03;;;;;;;9.02;100.00;99859.50;5024132;28;20384;-73
2021/12/01 01:37:05;;;;;;;8.15;4.72;;;;;;;9.06;100.00;99862.56;5019701;28;20095;-73
2021/12/01 01:39:31;;;;;;;7.43;4.47;;;;;;;9.10;100.00;99861.00;5018092;28;20034;-72
2021/12/01 01:41:56;;;;;;;8.35;5.20;;;;;;;9.04;100.00;99862.00;5012805;28;20034;-72
2021/12/01 01:44:21;;;;;;;8.38;5.32;;;;;;;9.02;100.00;99858.66;5009659;28;20607;-73
2021/12/01 01:46:47;;;;;;;10.10;5.85;;;;;;;9.00;100.00;99852.59;5013516;28;20040;-72
2021/12/01 01:49:19;;;;;;;9.48;6.18;;;;;;;9.06;100.00;99841.50;5010098;28;20491;-73
2021/12/01 01:51:47;;;;;;;9.40;6.53;;;;;;;8.94;100.00;99843.47;5014224;28;20029;-73
2021/12/01 01:54:13;;;;;;;9.43;6.35;;;;;;;8.96;100.00;99837.72;5018877;28;20348;-73
2021/12/01 01:56:40;;;;;;;9.52;6.72;;;;;;;8.96;100.00;99837.72;5011350;28;20026;-74
2021/12/01 01:59:05;;;;;;;12.02;7.25;;;;;;;8.90;100.00;99825.84;5016218;28;20036;-73
2021/12/01 02:01:46;;;;;;;9.13;5.68;;;;;;;8.95;100.00;99816.91;5014327;28;20029;-73
2021/12/01 02:04:17;;;;;;;9.38;6.03;;;;;;;8.95;100.00;99817.72;5021732;28;20044;-73
2021/12/01 02:06:46;;;;;;;9.68;6.55;;;;;;;8.86;100.00;99812.88;5012700;28;20117;-73
2021/12/01 02:09:12;;;;;;;8.77;6.18;;;;;;;8.83;100.00;99806.00;5007588;28;20040;-72
2021/12/01 02:11:38;;;;;;;12.52;7.68;;;;;;;8.76;100.00;99794.38;5012736;28;20091;-73
2021/12/01 02:14:04;;;;;;;9.77;6.70;;;;;;;8.75;100.00;99787.22;5013289;28;20025;-72
2021/12/01 02:16:30;;;;;;;8.40;6.00;;;;;;;8.76;100.00;99781.50;5007962;28;20109;-73
2021/12/01 02:18:55;;;;;;;10.57;6.60;;;;;;;8.70;100.00;99785.22;5008149;28;20110;-72
2021/12/01 02:21:28;;;;;;;10.05;5.93;;;;;;;8.63;100.00;99790.03;5027357;28;20266;-72
2021/12/01 02:24:00;;;;;;;9.70;6.35;;;;;;;8.72;100.00;99774.88;5007954;28;20061;-72
2021/12/01 02:26:28;;;;;;;9.73;6.88;;;;;;;8.66;100.00;99773.09;5012404;28;20532;-73
2021/12/01 02:28:55;;;;;;;;;;;;;;;8.74;100.00;99764.50;5009858;28;20057;-73
2021/12/01 02:31:25;;;;;;;8.98;6.03;;;;;;;8.61;100.00;99748.38;5015702;28;20063;-72
2021/12/01 02:33:50;;;;;;;8.43;5.00;;;;;;;8.72;99.89;99733.81;5008287;28;20030;-73
2021/12/01 02:36:16;;;;;;;7.20;4.90;;;;;;;8.66;99.46;99737.50;5025068;28;20032;-72
2021/12/01 02:38:43;;;;;;;7.32;4.50;;;;;;;8.63;100.00;99732.56;5027742;28;20095;-73
2021/12/01 02:41:09;;;;;;;6.65;4.40;;;;;;;8.70;98.66;99708.56;5010264;28;20225;-73
2021/12/01 02:43:35;;;;;;;6.75;4.28;;;;;;;8.64;99.00;99703.28;5013481;28;20476;-73
2021/12/01 02:46:01;;;;;;;6.65;4.45;;;;;;;8.62;99.08;99692.56;5016488;28;20038;-73
2021/12/01 02:48:27;;;;;;;6.43;4.45;;;;;;;8.61;98.66;99699.09;5025599;28;20083;-73
2021/12/01 02:50:53;;;;;;;8.02;4.10;;;;;;;8.65;98.01;99696.72;5009543;28;20029;-73
2021/12/01 02:53:23;;;;;;;5.63;4.05;;;;;;;8.59;98.84;99682.09;5019313;28;20560;-73
2021/12/01 02:55:56;;;;;;;6.60;5.05;;;;;;;8.53;98.91;99672.97;5006915;28;20025;-72
2021/12/01 02:58:23;;;;;;;6.47;4.10;;;;;;;8.52;98.89;99679.53;5012727;28;20421;-72
2021/12/01 03:00:51;;;;;;;6.50;3.83;;;;;;;8.54;98.04;99668.34;5008463;28;20372;-73
2021/12/01 03:03:16;;;;;;;6.70;3.95;;;;;;;8.49;98.75;99670.97;5012741;28;20029;-73
2021/12/01 03:05:46;;;;;;;6.38;4.18;;;;;;;8.50;98.64;99670.72;5026325;28;20054;-73
2021/12/01 03:08:13;;;;;;;6.38;3.80;;;;;;;8.44;98.71;99665.41;5010724;28;20619;-73
2021/12/01 03:10:38;;;;;;;8.18;4.60;;;;;;;8.38;98.93;99650.81;5019388;28;20064;-72
2021/12/01 03:13:05;;;;;;;4.47;2.85;;;;;;;8.49;98.19;99643.63;5025924;28;20065;-73
2021/12/01 03:15:30;;;;;;;8.27;4.22;;;;;;;8.35;98.92;99639.50;5013208;28;20026;-73
2021/12/01 03:17:56;;;;;;;6.65;4.43;;;;;;;8.43;97.77;99639.13;5023118;28;20040;-73
2021/12/01 03:20:22;;;;;;;7.18;4.30;;;;;;;8.42;97.45;99634.75;5015882;28;20410;-73
2021/12/01 03:22:48;;;;;;;6.60;4.13;;;;;;;8.33;98.43;99626.06;5007055;28;20033;-72
2021/12/01 03:25:14;;;;;;;7.43;4.15;;;;;;;8.31;98.86;99623.59;5006736;28;20164;-72
2021/12/01 03:27:40;;;;;;;6.57;4.30;;;;;;;8.30;98.68;99610.97;5005943;28;20758;-73
2021/12/01 03:30:08;;;;;;;10.30;4.95;;;;;;;8.29;98.11;99598.38;5023299;28;20032;-73
2021/12/01 03:32:33;;;;;;;7.53;4.32;;;;;;;8.44;97.37;99616.16;5026212;28;20036;-73
2021/12/01 03:34:59;;;;;;;6.93;4.30;;;;;;;8.35;97.10;99620.34;5024721;28;20376;-73
2021/12/01 03:37:24;;;;;;;8.05;4.95;;;;;;;8.35;96.76;99596.53;5023665;28;20056;-73
2021/12/01 03:39:50;;;;;;;6.75;4.07;;;;;;;8.39;96.41;99588.72;5010370;28;20484;-73
2021/12/01 03:42:15;;;;;;;6.78;4.60;;;;;;;8.33;96.92;99577.66;5005319;28;20040;-72
2021/12/01 03:44:40;;;;;;;7.30;5.25;;;;;;;8.36;97.01;99580.97;5015217;28;20536;-73
2021/12/01 03:47:06;;;;;;;8.75;5.10;;;;;;;8.36;96.66;99556.34;5023340;28;20022;-73
2021/12/01 03:49:31;;;;;;;8.20;4.68;;;;;;;8.46;96.08;99562.00;5016229;28;20429;-72
2021/12/01 03:51:56;;;;;;;7.40;5.30;;;;;;;8.37;95.90;99569.81;5019920;28;20033;-73
2021/12/01 03:54:21;;;;;;;8.27;4.90;;;;;;;8.37;95.69;99552.59;5020843;28;20098;-73
2021/12/01 03:56:47;;;;;;;6.88;4.85;;;;;;;8.35;95.81;99543.75;5014659;28;20057;-73
2021/12/01 03:59:13;;;;;;;7.35;4.50;;;;;;;8.34;95.87;99537.44;5014340;28;20022;-73
2021/12/01 04:01:38;;;;;;;7.38;5.28;;;;;;;8.27;95.83;99525.84;5007011;28;20532;-73
2021/12/01 04:04:03;;;;;;;8.18;5.30;;;;;;;8.24;96.43;99505.28;5005387;28;20144;-72
2021/12/01 04:06:29;;;;;;;8.05;4.97;;;;;;;8.28;95.72;99509.19;5014163;28;20048;-73
2021/12/01 04:08:55;;;;;;;6.60;4.32;;;;;;;8.37;94.21;99504.16;5026463;28;20333;-72
2021/12/01 04:11:21;;;;;;;7.25;4.88;;;;;;;8.37;94.22;99506.91;5017919;28;20400;-73
2021/12/01 04:13:48;;;;;;;9.02;4.78;;;;;;;8.41;93.69;99502.56;5016732;28;20041;-73
2021/12/01 04:16:13;;;;;;;7.40;4.80;;;;;;;8.40;93.33;99492.69;5009005;28;20105;-72
2021/12/01 04:18:39;;;;;;;8.35;5.20;;;;;;;8.32;94.18;99480.25;5005821;28;20033;-72
2021/12/01 04:21:05;;;;;;;7.55;4.90;;;;;;;8.40;93.80;99484.50;5022240;28;20052;-73
2021/12/01 04:23:34;;;;;;;8.15;5.60;;;;;;;8.32;93.46;99474.78;5025700;28;20332;-73
2021/12/01 04:25:59;;;;;;;7.82;5.50;;;;;;;8.41;92.64;99464.25;5009346;28;20025;-73
2021/12/01 04:28:24;;;;;;;7.68;5.43;;;;;;;8.34;93.43;99447.16;5011937;28;20697;-73
2021/12/01 04:30:50;;;;;;;7.75;5.25;;;;;;;8.36;93.16;99444.19;5005813;28;20049;-72
2021/12/01 04:33:15;;;;;;;8.57;5.43;;;;;;;8.39;92.82;99441.81;5013890;28;20402;-73
2021/12/01 04:35:40;;;;;;;8.23;5.28;;;;;;;8.30;93.32;99446.84;5018120;28;20034;-73
2021/12/01 04:38:06;;;;;;;9.75;5.72;;;;;;;8.26;93.21;99422.97;5011906;28;20138;-73
2021/12/01 04:40:31;;;;;;;8.10;5.32;;;;;;;8.28;93.01;99429.84;5023289;28;20025;-73
2021/12/01 04:42:56;;;;;;;8.05;5.38;;;;;;;8.27;93.28;99421.91;5004867;28;20022;-73
2021/12/01 04:45:22;;;;;;;7.97;4.55;;;;;;;8.32;92.16;99402.84;5016786;28;20038;-73
2021/12/01 04:47:52;;;;;;;7.18;4.35;;;;;;;8.26;93.08;99401.09;5024040;28;20029;-73
2021/12/01 04:50:20;;;;;;;8.43;5.55;;;;;;;8.27;92.68;99387.19;5017846;28;20416;-72
2021/12/01 04:52:46;;;;;;;7.68;4.95;;;;;;;8.18;93.67;99387.84;5024979;28;20036;-74
2021/12/01 04:55:12;;;;;;;7.20;4.80;;;;;;;8.26;92.64;99385.53;5017256;28;20124;-73
2021/12/01 04:57:42;;;;;;;6.78;4.55;;;;;;;8.10;94.65;99378.16;5004752;28;20112;-73
2021/12/01 05:00:10;;;;;;;8.18;4.20;;;;;;;8.18;93.54;99379.66;5021665;28;20039;-73
2021/12/01 05:02:35;;;;;;;9.10;4.80;;;;;;;7.95;94.99;99364.25;5023848;28;20037;-73
2021/12/01 05:05:00;;;;;;;7.93;4.63;;;;;;;7.84;95.92;99374.19;5024834;28;20051;-72
2021/12/01 05:07:25;;;;;;;8.18;5.00;;;;;;;7.84;96.13;99360.53;5011572;28;20026;-72
2021/12/01 05:09:51;;;;;;;6.90;4.40;;;;;;;7.90;96.06;99354.06;5008616;28;20048;-73
2021/12/01 05:12:16;;;;;;;6.85;4.38;;;;;;;7.84;96.30;99365.16;5004222;28;20065;-72
2021/12/01 05:14:41;;;;;;;7.55;4.47;;;;;;;7.81;96.51;99369.25;5014230;28;20072;-72
2021/12/01 05:17:07;;;;;;;8.45;4.68;;;;;;;7.74;97.09;99353.00;5024475;28;20068;-72
2021/12/01 05:19:34;;;;;;;7.38;4.22;;;;;;;7.79;96.59;99346.78;5010131;28;20113;-72
2021/12/01 05:21:59;;;;;;;9.23;4.50;;;;;;;7.73;96.68;99334.13;5004487;28;20523;-72
2021/12/01 05:24:24;;;;;;;6.80;3.80;;;;;;;7.69;97.26;99322.84;5016198;28;20053;-72
2021/12/01 05:26:50;;;;;;;6.93;4.25;;;;;;;7.69;97.45;99322.03;5021768;28;20080;-72
2021/12/01 05:29:16;;;;;;;7.30;3.75;;;;;;;7.70;97.25;99332.69;5024281;28;20033;-73
2021/12/01 05:31:42;;;;;;;7.28;4.13;;;;;;;7.59;98.50;99328.16;5019016;28;20079;-72
2021/12/01 05:34:07;;;;;;;7.05;3.65;;;;;;;7.66;97.63;99326.09;5024186;28;20034;-73
2021/12/01 05:36:32;;;;;;;6.07;3.30;;;;;;;7.65;97.55;99329.06;5018495;28;20116;-72
2021/12/01 05:38:58;;;;;;;6.30;3.50;;;;;;;7.63;97.77;99315.66;5023397;28;20087;-72
2021/12/01 05:41:23;;;;;;;4.80;3.22;;;;;;;7.59;98.06;99309.03;5017955;28;20022;-72
2021/12/01 05:43:49;;;;;;;5.45;3.53;;;;;;;7.56;98.64;99297.78;5008634;28;20029;-72
2021/12/01 05:46:14;;;;;;;4.80;2.95;;;;;;;7.62;98.26;99285.88;5019817;28;20041;-72
2021/12/01 05:48:40;;;;;;;5.00;3.00;;;;;;;7.50;98.59;99283.19;5023820;28;20037;-73
2021/12/01 05:51:05;;;;;;;4.75;2.72;;;;;;;7.49;98.83;99279.66;5015182;28;20061;-72
2021/12/01 05:53:31;;;;;;;3.78;2.30;;;;;;;7.52;98.79;99270.97;5009577;28;20401;-73
2021/12/01 05:55:56;;;;;;;4.40;2.70;;;;;;;7.53;98.57;99267.16;5012178;28;20040;-73
2021/12/01 05:58:21;;;;;;;4.38;2.97;;;;;;;7.45;99.41;99258.53;5026491;28;20484;-72
2021/12/01 06:00:47;;;;;;;3.85;2.38;;;;;;;7.46;99.60;99254.75;5021737;28;20025;-73
2021/12/01 06:03:13;;;;;;;4.80;2.67;;;;;;;7.43;99.45;99247.03;5026206;28;20028;-73
2021/12/01 06:05:38;;;;;;;4.72;2.75;;;;;;;7.40;99.81;99242.06;5012559;28;20129;-73
2021/12/01 06:08:04;;;;;;;5.20;2.65;;;;;;;7.45;99.28;99232.06;5016283;28;20049;-73
2021/12/01 06:10:29;;;;;;;5.90;3.10;;;;;;;7.38;99.93;99245.06;5007404;28;20037;-72
2021/12/01 06:12:55;;;;;;;3.65;2.67;;;;;;;7.48;99.51;99238.94;5025144;28;20108;-73
2021/12/01 06:15:20;;;;;;;4.90;2.83;;;;;;;7.42;99.98;99221.63;5014842;28;20022;-72
2021/12/01 06:17:46;;;;;;;4.07;2.50;;;;;;;7.44;100.00;99211.28;5008148;28;20061;-72
2021/12/01 06:20:13;;;;;;;4.60;2.92;;;;;;;7.42;100.00;99204.44;5014590;28;20080;-72
2021/12/01 06:22:43;;;;;;;4.38;2.90;;;;;;;7.39;100.00;99211.19;5008060;28;20075;-72
2021/12/01 06:25:09;;;;;;;4.25;2.90;;;;;;;7.37;100.00;99204.34;5009053;28;20022;-73
2021/12/01 06:27:35;;;;;;;4.93;3.15;;;;;;;7.43;100.00;99200.59;5014055;28;20075;-72
2021/12/01 06:30:01;;;;;;;4.80;2.80;;;;;;;7.37;100.00;99185.22;5015554;28;20207;-71
2021/12/01 06:32:26;;;;;;;5.28;3.47;;;;;;;7.42;100.00;99191.59;5016701;28;20320;-73
2021/12/01 06:34:51;;;;;;;5.20;3.22;;;;;;;7.41;100.00;99195.41;5020133;28;20021;-72
2021/12/01 06:37:18;;;;;;;3.97;2.70;;;;;;;7.47;100.00;99191.66;5023790;28;20075;-72
2021/12/01 06:39:43;;;;;;;4.05;3.08;;;;;;;7.49;100.00;99173.09;5026857;28;20622;-72
2021/12/01 06:42:09;;;;;;;5.25;3.28;;;;;;;7.55;100.00;99171.28;5023941;28;20136;-72
2021/12/01 06:44:34;;;;;;;4.38;2.85;;;;;;;7.50;100.00;99177.53;5007463;28;20500;-71
2021/12/01 06:47:02;;;;;;;4.05;2.70;;;;;;;7.55;100.00;99182.19;5009550;28;20037;-72
2021/12/01 06:49:27;;;;;;;7.65;3.58;;;;;;;7.50;100.00;99168.47;5008386;28;20057;-72
2021/12/01 06:51:52;;;;;;;4.22;3.10;;;;;;;7.57;100.00;99168.31;5022434;28;20031;-72
2021/12/01 06:54:18;;;;;;;5.60;3.15;;;;;;;7.55;100.00;99165.81;5026120;28;20037;-71
2021/12/01 06:56:43;;;;;;;6.22;3.85;;;;;;;7.50;100.00;99165.72;5024738;28;20046;-72
2021/12/01 06:59:09;;;;;;;5.18;3.40;;;;;;;7.55;100.00;99154.88;5024213;28;20033;-72
2021/12/01 07:01:34;;;;;;;6.32;3.40;;;;;;;7.58;100.00;99148.09;5027068;28;20036;-71
2021/12/01 07:04:00;;;;;;;4.72;3.22;;;;;;;7.62;100.00;99163.75;5026433;28;20071;-71
2021/12/01 07:06:25;;;;;;;4.00;2.88;;;;;;;7.50;100.00;99160.28;5026547;28;20029;-71
2021/12/01 07:08:50;;;;;;;5.32;3.17;;;;;;;7.54;100.00;99153.22;5023735;28;20116;-72
2021/12/01 07:11:16;;;;;;;5.78;3.65;;;;;;;7.60;100.00;99151.41;5022052;28;20026;-71
2021/12/01 07:13:41;;;;;;;6.75;4.25;;;;;;;7.60;100.00;99143.19;5026218;28;20185;-72
2021/12/01 07:16:06;;;;;;;6.20;4.07;;;;;;;7.53;100.00;99146.13;5026506;28;20022;-72
2021/12/01 07:18:32;;;;;;;7.20;3.85;;;;;;;7.60;100.00;99144.03;5026415;28;20383;-72
2021/12/01 07:20:57;;;;;;;4.45;2.97;;;;;;;7.64;100.00;99128.78;5025911;28;20029;-72
2021/12/01 07:23:23;;;;;;;5.85;3.80;;;;;;;7.69;100.00;99144.41;5026621;28;20026;-72
2021/12/01 07:25:49;;;;;;;5.85;3.17;;;;;;;7.69;100.00;99142.50;5025079;28;20036;-72
2021/12/01 07:28:14;;;;;;;5.65;3.40;;;;;;;7.78;100.00;99149.19;5020479;28;20373;-72
2021/12/01 07:30:40;;;;;;;6.43;3.70;;;;;;;7.66;100.00;99140.31;5006068;28;20076;-72
2021/12/01 07:33:06;;;;;;;5.85;3.55;;;;;;;7.69;100.00;99147.16;5005951;28;20061;-72
2021/12/01 07:35:31;;;;;;;5.55;3.53;;;;;;;7.77;100.00;99147.53;5005421;28;20477;-72
2021/12/01 07:37:56;;;;;;;5.95;3.55;;;;;;;7.82;100.00;99132.28;5006219;28;20030;-71
2021/12/01 07:40:22;;;;;;;6.70;3.72;;;;;;;7.78;100.00;99126.50;5005345;28;20022;-72
2021/12/01 07:42:47;;;;;;;4.88;3.30;;;;;;;7.89;100.00;99108.31;5004936;28;20026;-72
2021/12/01 07:45:12;;;;;;;6.70;3.35;;;;;;;7.84;100.00;99105.53;5005502;28;20354;-72
2021/12/01 07:47:39;;;;;;;5.55;3.53;;;;;;;7.93;100.00;99107.53;5006615;28;20055;-72
2021/12/01 07:50:06;;;;;;;7.55;4.50;;;;;;;7.96;100.00;99101.59;5005202;28;20077;-72
2021/12/01 07:52:32;;;;;;;5.80;3.47;;;;;;;8.00;100.00;99096.41;5004356;28;20034;-72
2021/12/01 07:54:57;;;;;;;6.18;3.45;;;;;;;8.09;99.66;99104.97;5005653;28;20087;-73
2021/12/01 07:57:23;;;;;;;4.45;3.05;;;;;;;8.10;99.92;99096.50;5004819;28;20018;-72
2021/12/01 07:59:48;;;;;;;5.93;3.42;;;;;;;8.13;99.73;99095.19;5005489;28;20026;-72
2021/12/01 08:02:13;;;;;;;5.32;3.30;;;;;;;8.23;99.05;99095.28;5005839;28;20079;-73
2021/12/01 08:04:39;;;;;;;5.95;3.78;;;;;;;8.24;98.49;99094.19;5003451;28;20251;-72
2021/12/01 08:07:04;;;;;;;6.95;4.03;;;;;;;8.22;98.54;99089.00;5020717;28;20428;-72
2021/12/01 08:09:29;;;;;;;6.40;3.88;;;;;;;8.18;99.19;99096.06;5024946;28;20036;-74
2021/12/01 08:11:55;;;;;;;6.03;3.50;;;;;;;8.24;98.99;99088.72;5005048;28;20022;-73
2021/12/01 08:14:21;;;;;;;7.40;4.15;;;;;;;8.22;98.99;99099.13;5007033;28;20038;-73
2021/12/01 08:16:47;;;;;;;6.03;3.30;;;;;;;8.21;99.07;99090.09;5003843;28;20112;-73
2021/12/01 08:19:12;;;;;;;6.78;4.38;;;;;;;8.19;99.61;99091.41;5004552;28;20068;-72
2021/12/01 08:21:38;;;;;;;7.40;4.22;;;;;;;8.16;99.75;99070.91;5005486;28;20026;-73
2021/12/01 08:24:04;;;;;;;6.80;4.03;;;;;;;8.24;99.22;99080.53;5004296;28;20022;-72
2021/12/01 08:26:30;;;;;;;7.85;3.97;;;;;;;8.15;99.86;99088.34;5004638;28;20488;-72
2021/12/01 08:28:55;;;;;;;6.78;4.60;;;;;;;8.21;99.51;99087.34;5005127;28;20033;-72
2021/12/01 08:31:21;;;;;;;7.55;4.70;;;;;;;8.14;100.00;99077.69;5017594;28;20389;-71
2021/12/01 08:33:47;;;;;;;8.93;4.85;;;;;;;8.14;100.00;99066.75;5024502;28;20100;-71
2021/12/01 08:36:13;;;;;;;7.20;4.65;;;;;;;8.25;99.93;99063.03;5012710;28;20121;-71
2021/12/01 08:38:40;;;;;;;7.53;4.85;;;;;;;8.31;99.28;99062.84;5004796;28;20132;-72
2021/12/01 08:41:07;;;;;;;8.48;5.35;;;;;;;8.29;99.11;99056.78;5016939;28;20380;-72
2021/12/01 08:43:33;;;;;;;7.50;5.00;;;;;;;8.31;99.14;99060.09;5017586;28;20136;-72
2021/12/01 08:46:00;;;;;;;8.50;5.80;;;;;;;8.27;99.80;99067.16;5022079;28;20033;-72
2021/12/01 08:48:26;;;;;;;7.28;5.03;;;;;;;8.29;99.57;99051.31;5026755;28;20511;-71
2021/12/01 08:50:51;;;;;;;8.00;5.78;;;;;;;8.46;98.57;99039.44;5026497;28;20064;-72
2021/12/01 08:53:16;;;;;;;7.75;5.35;;;;;;;8.44;98.38;99036.97;5025978;28;20044;-72
2021/12/01 08:55:42;;;;;;;8.30;4.40;;;;;;;8.58;97.60;99057.34;5022625;28;20021;-72
2021/12/01 08:58:09;;;;;;;7.53;5.10;;;;;;;8.55;98.26;99051.56;5021662;28;20333;-72
2021/12/01 09:00:37;;;;;;;;;;;;;;;8.72;97.64;99052.25;5020939;28;20053;-72
2021/12/01 09:03:04;;;;;;;8.90;4.75;;;;;;;8.70;96.80;99051.69;5024245;28;19971;-72
2021/12/01 09:05:29;;;;;;;7.45;4.03;;;;;;;8.68;96.73;99051.13;5023299;28;20080;-72
2021/12/01 09:07:55;;;;;;;7.85;4.75;;;;;;;8.64;96.71;99052.72;5024600;28;20674;-72
2021/12/01 09:10:20;;;;;;;7.43;4.88;;;;;;;8.64;96.78;99066.41;5020992;28;20551;-72
2021/12/01 09:12:45;;;;;;;9.13;4.72;;;;;;;8.65;96.96;99048.91;5022404;28;20025;-72
2021/12/01 09:15:13;;;;;;;9.75;5.90;;;;;;;8.45;98.20;99046.81;5021888;28;20029;-72
2021/12/01 09:17:38;;;;;;;8.25;5.35;;;;;;;8.43;98.04;99049.00;5024397;28;20029;-72
2021/12/01 09:20:04;;;;;;;8.57;5.50;;;;;;;8.47;97.53;99057.53;5028279;28;20040;-72
2021/12/01 09:22:29;;;;;;;9.43;5.97;;;;;;;8.52;97.24;99072.06;5021739;28;20029;-73
2021/12/01 09:24:55;;;;;;;9.95;5.70;;;;;;;8.50;97.63;99073.41;5019392;28;20464;-72
2021/12/01 09:27:20;;;;;;;9.52;5.90;;;;;;;8.44;98.53;99074.44;5011589;28;20026;-72
2021/12/01 09:29:45;;;;;;;8.55;5.35;;;;;;;8.51;97.95;99069.56;5016513;28;20064;-72
2021/12/01 09:32:12;;;;;;;8.70;5.63;;;;;;;8.49;97.65;99071.75;5020496;28;20435;-72
2021/12/01 09:34:39;;;;;;;10.18;5.97;;;;;;;8.43;98.55;99081.84;5023971;28;20035;-72
2021/12/01 09:37:05;;;;;;;9.10;5.75;;;;;;;8.49;97.54;99085.44;5023614;28;20044;-72
2021/12/01 09:39:30;;;;;;;9.20;6.38;;;;;;;8.42;98.73;99080.19;5016424;28;20069;-72
2021/12/01 09:41:56;;;;;;;9.65;6.53;;;;;;;8.35;99.22;99104.16;5021566;28;20083;-70
2021/12/01 09:44:21;;;;;;;9.48;6.22;;;;;;;8.28;99.64;99096.16;5022914;28;20559;-72
2021/12/01 09:46:47;;;;;;;8.80;3.83;;;;;;;8.16;97.79;99106.44;5023093;28;20056;-72
2021/12/01 09:49:12;;;;;;;7.72;2.67;;;;;;;7.99;96.71;99108.44;5023113;28;20037;-72
2021/12/01 09:51:37;;;;;;;7.72;2.80;;;;;;;7.84;97.70;99108.25;5022299;28;20020;-72
2021/12/01 09:54:03;;;;;;;8.93;1.90;;;;;;;7.83;95.57;99101.97;5017881;28;20622;-71
2021/12/01 09:56:30;;;;;;;6.55;1.73;;;;;;;7.88;94.99;99103.94;5018129;28;20056;-72
2021/12/01 09:58:57;;;;;;;9.02;1.77;;;;;;;8.10;93.88;99104.72;5018639;28;20030;-72
2021/12/01 10:01:24;;;;;;;8.38;2.47;;;;;;;8.02;95.00;99088.78;5020672;28;20030;-72
2021/12/01 10:03:51;;;;;;;8.05;2.50;;;;;;;8.35;94.16;99090.47;5019351;28;20053;-72
2021/12/01 10:06:21;;;;;;;8.68;2.20;;;;;;;8.59;92.77;99082.78;5020025;28;20033;-72
2021/12/01 10:08:50;;;;;;;9.70;2.03;;;;;;;8.52;92.03;99079.47;5021218;28;20022;-72
2021/12/01 10:11:19;;;;;;;7.38;2.10;;;;;;;8.52;92.73;99083.03;5020475;28;20041;-72
2021/12/01 10:14:13;;;;;;;11.40;2.20;;;;;;;8.70;92.53;99075.47;5023342;28;20052;-72
2021/12/01 10:16:41;;;;;;;11.05;2.05;;;;;;;9.52;88.62;99074.88;5017238;28;20053;-71
2021/12/01 10:19:09;;;;;;;9.20;2.15;;;;;;;10.46;83.68;99086.72;5021084;28;20026;-72
2021/12/01 10:21:54;;;;;;;9.93;1.95;;;;;;;10.57;81.70;99073.81;5019700;28;20057;-71
2021/12/01 10:24:25;;;;;;;11.23;1.95;;;;;;;10.29;81.21;99088.88;5011519;28;20129;-72
2021/12/01 10:27:01;;;;;;;7.78;2.08;;;;;;;10.09;81.93;99089.66;5020920;28;20500;-72
2021/12/01 10:29:29;;;;;;;12.55;1.70;;;;;;;9.66;83.11;99088.94;5015976;28;20508;-72
2021/12/01 10:32:13;;;;;;;10.75;1.83;;;;;;;9.92;83.89;99089.84;5014379;28;20037;-72
2021/12/01 10:35:00;;;;;;;8.85;2.13;;;;;;;9.79;83.69;99093.94;5015531;28;20030;-72
2021/12/01 10:37:30;;;;;;;11.73;1.88;;;;;;;9.67;84.42;99096.06;5026422;28;20072;-70
2021/12/01 10:40:12;;;;;;;9.25;2.00;;;;;;;9.95;82.98;99086.56;5024512;28;20120;-72
2021/12/01 10:42:57;;;;;;;9.43;1.70;;;;;;;10.41;82.81;99085.88;5020826;28;20028;-72
2021/12/01 10:45:29;;;;;;;11.80;1.80;;;;;;;10.63;80.51;99078.19;5024969;28;20025;-73
2021/12/01 10:47:54;;;;;;;10.13;2.38;;;;;;;10.24;79.54;99083.38;5021587;28;20120;-72
2021/12/01 10:50:22;;;;;;;6.97;1.67;;;;;;;9.72;81.38;99081.56;5025723;28;20492;-72
2021/12/01 10:52:50;;;;;;;7.10;1.70;;;;;;;9.50;80.14;99084.47;5027040;28;20179;-72
2021/12/01 10:55:17;;;;;;;5.85;1.40;;;;;;;9.21;81.56;99073.09;5024760;28;20088;-72
2021/12/01 10:57:49;;;;;;;10.35;1.40;;;;;;;8.94;82.74;99084.16;5026043;28;20038;-72
2021/12/01 11:00:23;;;;;;;4.55;1.30;;;;;;;8.90;83.36;99080.28;5026613;28;20071;-72
2021/12/01 11:02:50;;;;;;;5.95;1.95;;;;;;;8.79;83.74;99084.88;5025439;28;20068;-72
2021/12/01 11:05:31;;;;;;;7.55;1.65;;;;;;;8.75;84.67;99081.81;5016894;28;20136;-72
2021/12/01 11:07:56;;;;;;;5.93;1.80;;;;;;;8.74;84.89;99079.34;5007737;28;20022;-71
2021/12/01 11:10:25;;;;;;;6.97;2.50;;;;;;;8.83;84.70;99081.34;5007412;28;20037;-72
2021/12/01 11:13:01;;;;;;;6.15;1.80;;;;;;;8.92;84.65;99078.97;5027427;28;20024;-72
2021/12/01 11:15:38;;;;;;;5.72;1.70;;;;;;;8.89;83.96;99087.69;5017057;28;20128;-72
2021/12/01 11:18:05;;;;;;;8.20;1.98;;;;;;;8.64;85.06;99084.75;5008619;28;20033;-71
2021/12/01 11:20:46;;;;;;;9.95;2.67;;;;;;;8.67;83.68;99090.53;5008444;28;20026;-72
2021/12/01 11:23:17;;;;;;;6.43;1.70;;;;;;;8.57;84.14;99094.00;5015822;28;20041;-72
2021/12/01 11:25:46;;;;;;;6.00;1.50;;;;;;;8.51;84.80;99105.16;5022949;28;20068;-72
2021/12/01 11:28:15;;;;;;;8.30;1.75;;;;;;;8.54;85.33;99107.38;5026035;28;20383;-72
2021/12/01 11:30:43;;;;;;;6.40;2.08;;;;;;;8.45;85.76;99096.06;5024919;28;20096;-72
2021/12/01 11:33:13;;;;;;;10.00;1.60;;;;;;;8.44;84.92;99083.47;5018652;28;20481;-72
2021/12/01 11:35:39;;;;;;;6.68;1.73;;;;;;;8.43;85.83;99094.69;5011027;28;20066;-72
2021/12/01 11:38:05;;;;;;;5.80;1.80;;;;;;;8.42;85.10;99082.09;5010672;28;20105;-71
2021/12/01 11:40:31;;;;;;;4.80;1.67;;;;;;;8.43;85.39;99083.75;5005889;28;20536;-72
2021/12/01 11:42:58;;;;;;;10.57;1.75;;;;;;;8.41;85.87;99078.53;5016987;28;20026;-72